ADDS METAR Data INFO
IDs: Format: Raw Decoded Include TAF

Data at: 1951 UTC 14 Aug 2018

KFPK 141935Z AUTO 25003KT 10SM SCT047 30/17 A2996 RMK AO2 T03030173
KFPK 141915Z AUTO 24005KT 10SM SCT047 SCT055 30/17 A2996 RMK AO2 T03000172
KFPK 141855Z AUTO 27005KT 10SM SCT049 SCT055 30/18 A2997 RMK AO2 T03000175
KFPK 141835Z AUTO 25004KT 10SM SCT047 SCT055 30/17 A2998 RMK AO2 T03000168
KFPK 141815Z AUTO 27005KT 10SM SCT044 SCT055 SCT065 30/18 A2998 RMK AO2 T03000176
KFPK 141755Z AUTO 27005KT 10SM SCT042 SCT050 BKN065 29/19 A2998 RMK AO2 T02930186 10294 20165
KFPK 141735Z AUTO 22005KT 10SM CLR 29/18 A2998 RMK AO2 T02890180
KFPK 141715Z AUTO 00000KT 10SM CLR 29/18 A2998 RMK AO2 T02900180
KFPK 141655Z AUTO 26005KT 10SM CLR 28/18 A2999 RMK AO2 T02820176
KFPK 141635Z AUTO 26004KT 10SM CLR 28/17 A2999 RMK AO2 T02810173
KFPK 141616Z AUTO 19003KT 10SM CLR 28/17 A2999 RMK AO2 T02750165
KFPK 141555Z AUTO 24006KT 10SM CLR 27/16 A3000 RMK AO2 T02710161
KFPK 141535Z AUTO 25005KT 10SM CLR 27/17 A3000 RMK AO2 T02660166
KFPK 141515Z AUTO 23007KT 10SM CLR 26/16 A2999 RMK AO2 T02640162
KFPK 141455Z AUTO 25004KT 10SM CLR 26/17 A2999 RMK AO2 T02600170
KFPK 141435Z AUTO 26004KT 10SM CLR 25/17 A3000 RMK AO2 T02540173
KFPK 141415Z AUTO 26004KT 10SM CLR 25/17 A3000 RMK AO2 T02490173
KFPK 141355Z AUTO 00000KT 10SM CLR 24/18 A3000 RMK AO2 T02350182
KFPK 141335Z AUTO 00000KT 10SM CLR 23/18 A3000 RMK AO2 T02250182
KFPK 141315Z AUTO 00000KT 10SM CLR 21/18 A3000 RMK AO2 T02090184
KFPK 141255Z AUTO 00000KT 10SM CLR 20/18 A3000 RMK AO2 T01950184
KFPK 141235Z AUTO 00000KT 7SM CLR 18/18 A3000 RMK AO2 T01820175
KFPK 141215Z AUTO 00000KT 4SM BR CLR 17/16 A3000 RMK AO2 T01710164
KFPK 141155Z AUTO 00000KT 7SM CLR 16/15 A2999 RMK AO2 T01600152 10176 20139
KFPK 141135Z AUTO 00000KT 3SM BR CLR 15/14 A2999 RMK AO2 T01470140
KFPK 141115Z AUTO 00000KT 1/4SM FG BKN003 15/14 A2999 RMK AO2 T01500142
KFPK 141055Z AUTO 00000KT 7SM SCT003 15/14 A2999 RMK AO2 T01470139
KFPK 141035Z AUTO 00000KT M1/4SM FG OVC003 16/15 A2999 RMK AO2 T01570149
KFPK 141015Z AUTO 00000KT 7SM CLR 15/14 A2999 RMK AO2 T01480140
KFPK 140955Z AUTO 00000KT 1 3/4SM BR VV007 15/15 A2999 RMK AO2 VIS 3/4V5 T01540146
KFPK 140935Z AUTO 00000KT 5SM BR CLR 15/15 A2999 RMK AO2 T01530145
KFPK 140915Z AUTO 00000KT 7SM CLR 15/14 A2998 RMK AO2 T01510143
KFPK 140855Z AUTO 00000KT 5SM BR CLR 15/15 A2999 RMK AO2 T01540145
KFPK 140835Z AUTO 00000KT 5SM BR CLR 16/15 A2999 RMK AO2 T01570149
KFPK 140815Z AUTO 00000KT 1/2SM FG VV005 17/16 A3000 RMK AO2 T01650156
KFPK 140755Z AUTO 00000KT 5SM BR CLR 17/16 A3000 RMK AO2 T01650156
KFPK 140735Z AUTO 00000KT 7SM CLR 16/15 A3000 RMK AO2 T01600151
KFPK 140715Z AUTO 00000KT 5SM BR CLR 17/16 A3001 RMK AO2 T01660158
KFPK 140655Z AUTO 00000KT 1 1/4SM BR VV007 17/16 A3001 RMK AO2 VIS 1/2V3 T01680159
KFPK 140635Z AUTO 00000KT 5SM BR CLR 17/16 A3001 RMK AO2 T01720163
KFPK 140615Z AUTO 00000KT 7SM CLR 17/16 A3002 RMK AO2 T01690158
KFPK 140555Z AUTO 00000KT 5SM BR CLR 17/16 A3002 RMK AO2 T01730164 10263 20170 402960151
KFPK 140535Z AUTO 00000KT 1/2SM FG VV005 17/16 A3002 RMK AO2 T01730163
KFPK 140515Z AUTO 00000KT 7SM CLR 18/17 A3002 RMK AO2 T01820171
KFPK 140455Z AUTO 00000KT 10SM CLR 18/17 A3002 RMK AO2 T01820171
KFPK 140435Z AUTO 00000KT 10SM CLR 18/17 A3002 RMK AO2 T01800170
KFPK 140415Z AUTO 00000KT 10SM CLR 18/17 A3002 RMK AO2 T01820170
KFPK 140355Z AUTO 00000KT 10SM CLR 18/17 A3002 RMK AO2 T01780166
KFPK 140335Z AUTO 00000KT 10SM CLR 19/18 A3002 RMK AO2 T01910176
KFPK 140315Z AUTO 00000KT 10SM CLR 19/17 A3003 RMK AO2 T01900174
KFPK 140256Z AUTO 00000KT 10SM CLR 19/17 A3003 RMK AO2 T01900171
KFPK 140235Z AUTO 00000KT 10SM CLR 20/17 A3003 RMK AO2 T01980172
KFPK 140215Z AUTO 00000KT 10SM CLR 21/18 A3003 RMK AO2 T02050180
KFPK 140155Z AUTO 00000KT 10SM CLR 20/18 A3002 RMK AO2 T02020180
KFPK 140135Z AUTO 00000KT 10SM CLR 21/18 A3002 RMK AO2 T02100182
KFPK 140115Z AUTO 00000KT 10SM CLR 22/18 A3001 RMK AO2 T02150181
KFPK 140055Z AUTO 00000KT 10SM CLR 23/18 A3001 RMK AO2 T02250179
KFPK 140035Z AUTO 00000KT 10SM CLR 24/18 A3000 RMK AO2 T02430175
KFPK 140015Z AUTO 00000KT 10SM CLR 25/17 A3001 RMK AO2 T02500173
KFPK 132355Z AUTO 00000KT 10SM CLR 27/16 A3000 RMK AO2 T02680162 10296 20266
KFPK 132335Z AUTO 00000KT 10SM CLR 27/16 A3001 RMK AO2 T02710161
KFPK 132315Z AUTO 00000KT 10SM CLR 27/16 A3001 RMK AO2 T02710159
KFPK 132255Z AUTO 36003KT 10SM CLR 28/16 A3001 RMK AO2 T02760158
KFPK 132235Z AUTO 00000KT 10SM CLR 28/16 A3002 RMK AO2 T02780161
KFPK 132215Z AUTO 00000KT 10SM CLR 28/16 A3002 RMK AO2 T02810164
KFPK 132155Z AUTO 00000KT 10SM CLR 28/15 A3002 RMK AO2 T02840151
KFPK 132135Z AUTO 36004KT 10SM CLR 29/15 A3003 RMK AO2 T02860150
KFPK 132115Z AUTO 01003KT 10SM CLR 29/15 A3003 RMK AO2 T02850152
KFPK 132055Z AUTO 31004KT 10SM CLR 29/15 A3003 RMK AO2 T02870145
KFPK 132035Z AUTO 29004KT 10SM CLR 29/15 A3003 RMK AO2 T02910146
KFPK 132015Z AUTO 00000KT 10SM CLR 29/13 A3004 RMK AO2 T02890134
KFPK 131955Z AUTO 30006KT 10SM SCT060 29/14 A3004 RMK AO2 T02920140
KFPK 131935Z AUTO 00000KT 10SM SCT049 SCT060 29/15 A3005 RMK AO2 T02850149
KFPK 131915Z AUTO 00000KT 10SM SCT049 SCT060 28/15 A3006 RMK AO2 T02830153
KFPK 131855Z AUTO 08006KT 10SM SCT047 29/16 A3006 RMK AO2 T02870161
KFPK 131835Z AUTO 12005KT 10SM SCT046 28/16 A3007 RMK AO2 T02830163
KFPK 131815Z AUTO 12003KT 10SM SCT046 29/17 A3008 RMK AO2 T02850165
KFPK 131755Z AUTO 00000KT 10SM CLR 28/15 A3009 RMK AO2 T02780154 10283 20177
KFPK 131735Z AUTO 16003KT 10SM CLR 28/16 A3009 RMK AO2 T02760158
KFPK 131715Z AUTO 00000KT 10SM SCT044 27/16 A3010 RMK AO2 T02720161
KFPK 131655Z AUTO 09004KT 10SM CLR 27/17 A3010 RMK AO2 T02730170
KFPK 131635Z AUTO 14003KT 10SM CLR 27/16 A3010 RMK AO2 T02680161
KFPK 131615Z AUTO 19003KT 10SM CLR 27/16 A3011 RMK AO2 T02680161
KFPK 131555Z AUTO 00000KT 10SM CLR 27/16 A3012 RMK AO2 T02650159
KFPK 131535Z AUTO 00000KT 10SM CLR 26/16 A3012 RMK AO2 T02610161
KFPK 131515Z AUTO 00000KT 10SM CLR 26/17 A3012 RMK AO2 T02580173
KFPK 131455Z AUTO 00000KT 10SM CLR 25/18 A3013 RMK AO2 T02540175
KFPK 131435Z AUTO 00000KT 10SM CLR 25/17 A3013 RMK AO2 T02470174
KFPK 131415Z AUTO 00000KT 10SM CLR 24/17 A3013 RMK AO2 T02420174
KFPK 131355Z AUTO 00000KT 10SM CLR 23/17 A3013 RMK AO2 T02310174
KFPK 131335Z AUTO 00000KT 10SM CLR 23/18 A3013 RMK AO2 T02260179
KFPK 131315Z AUTO 00000KT 10SM CLR 22/18 A3012 RMK AO2 T02150180
KFPK 131255Z AUTO 00000KT 10SM CLR 20/18 A3012 RMK AO2 T02030180
KFPK 131235Z AUTO 00000KT 7SM CLR 19/18 A3012 RMK AO2 T01900176
KFPK 131215Z AUTO 00000KT 7SM CLR 18/17 A3012 RMK AO2 T01830173
KFPK 131155Z AUTO 00000KT 7SM CLR 18/17 A3012 RMK AO2 T01750167 10181 20151
KFPK 131135Z AUTO 00000KT 5SM BR CLR 17/16 A3011 RMK AO2 T01670160
KFPK 131115Z AUTO 00000KT 1 1/2SM BR VV007 15/15 A3010 RMK AO2 VIS 1/2V5 T01520145
KFPK 131055Z AUTO 00000KT 5SM BR CLR 16/15 A3010 RMK AO2 T01560147
KFPK 131035Z AUTO 00000KT 2 1/2SM BR CLR 16/16 A3010 RMK AO2 T01620155
KFPK 131015Z AUTO 00000KT 3SM BR CLR 16/15 A3010 RMK AO2 T01570148
KFPK 130955Z AUTO 00000KT 1/2SM FG VV005 17/16 A3010 RMK AO2 T01660158
KFPK 130935Z AUTO 00000KT 10SM CLR 16/15 A3010 RMK AO2 T01610152
KFPK 130915Z AUTO 00000KT 5SM BR CLR 17/16 A3010 RMK AO2 T01650156
KFPK 130855Z AUTO 00000KT 7SM CLR 17/16 A3011 RMK AO2 T01710161
KFPK 130835Z AUTO 00000KT 4SM BR CLR 17/16 A3011 RMK AO2 T01740162
KFPK 130815Z AUTO 00000KT 7SM SCT060 SCT070 18/17 A3011 RMK AO2 T01780166
KFPK 130755Z AUTO 00000KT 10SM SCT047 BKN060 BKN070 18/17 A3012 RMK AO2 T01810168